ADDS METAR Data INFO
IDs: Format: Raw Decoded Include TAF

Data at: 0718 UTC 24 Jun 2018

KMGR 240655Z AUTO 21003KT 10SM CLR 26/23 A2998 RMK AO2
KMGR 240635Z AUTO 23003KT 10SM CLR 26/24 A2999 RMK AO2
KMGR 240615Z AUTO 26004KT 10SM CLR 26/24 A3000 RMK AO2
KMGR 240555Z AUTO 24004KT 10SM CLR 26/24 A3000 RMK AO2
KMGR 240535Z AUTO 23004KT 10SM CLR 26/24 A3000 RMK AO2
KMGR 240515Z AUTO 23003KT 10SM CLR 26/24 A3000 RMK AO2
KMGR 240455Z AUTO 21004KT 10SM CLR 26/25 A3000 RMK AO2
KMGR 240435Z AUTO 21003KT 10SM CLR 27/25 A3000 RMK AO2
KMGR 240415Z AUTO 21003KT 10SM CLR 27/24 A3000 RMK AO2
KMGR 240355Z AUTO 00000KT 10SM CLR 27/24 A3000 RMK AO2
KMGR 240335Z AUTO 17003KT 10SM CLR 27/24 A3000 RMK AO2
KMGR 240315Z AUTO 17004KT 10SM CLR 27/23 A2999 RMK AO2
KMGR 240255Z AUTO 00000KT 7SM CLR 28/23 A3000 RMK AO2
KMGR 240235Z AUTO 18004KT 10SM CLR 28/23 A2998 RMK AO2
KMGR 240215Z AUTO 17006KT 10SM CLR 28/23 A2997 RMK AO2
KMGR 240155Z AUTO 16003KT 10SM CLR 27/23 A2997 RMK AO2
KMGR 240135Z AUTO 00000KT 10SM CLR 27/24 A2997 RMK AO2
KMGR 240115Z AUTO 00000KT 10SM CLR 27/23 A2997 RMK AO2
KMGR 240055Z AUTO 00000KT 10SM CLR 28/23 A2997 RMK AO2
KMGR 240035Z AUTO 00000KT 10SM CLR 29/23 A2997 RMK AO2
KMGR 240015Z AUTO 00000KT 10SM CLR 30/23 A2996 RMK AO2
KMGR 232355Z AUTO 00000KT 10SM CLR 32/22 A2996 RMK AO2
KMGR 232335Z AUTO 25003KT 10SM CLR 32/21 A2996 RMK AO2
KMGR 232315Z AUTO 00000KT 10SM CLR 33/21 A2995 RMK AO2
KMGR 232255Z AUTO 26006KT 10SM CLR 33/20 A2995 RMK AO2
KMGR 232235Z AUTO 25006KT 10SM CLR 33/20 A2995 RMK AO2
KMGR 232215Z AUTO 25005KT 10SM CLR 33/20 A2995 RMK AO2
KMGR 232150Z AUTO 28005KT 10SM CLR 33/21 A2995 RMK AO2
KMGR 232135Z AUTO 25005KT 10SM CLR 33/21 A2995 RMK AO2
KMGR 232115Z AUTO 23005KT 10SM CLR 33/21 A2995 RMK AO2
KMGR 232055Z AUTO 27007KT 10SM CLR 33/21 A2995 RMK AO2
KMGR 232035Z AUTO 23006KT 10SM SCT050 SCT065 33/21 A2996 RMK AO2
KMGR 232015Z AUTO 29005KT 10SM SCT050 SCT065 32/21 A2996 RMK AO2
KMGR 231955Z AUTO 28006KT 10SM SCT055 33/21 A2997 RMK AO2 LTG DSNT NE
KMGR 231935Z AUTO 30008G16KT 10SM CLR 33/21 A2998 RMK AO2
KMGR 231915Z AUTO 26010G14KT 10SM SCT047 33/21 A2998 RMK AO2
KMGR 231855Z AUTO 27008KT 10SM CLR 33/21 A2999 RMK AO2
KMGR 231835Z AUTO 26008KT 10SM SCT043 SCT050 32/21 A2999 RMK AO2
KMGR 231815Z AUTO 26009KT 10SM SCT043 SCT048 32/22 A3000 RMK AO2
KMGR 231755Z AUTO 23009KT 10SM SCT043 SCT050 32/22 A3000 RMK AO2
KMGR 231735Z AUTO 27009G19KT 10SM SCT039 SCT046 32/21 A3001 RMK AO2
KMGR 231715Z AUTO 28007G15KT 10SM SCT039 SCT048 32/22 A3001 RMK AO2
KMGR 231655Z AUTO 25013KT 10SM SCT039 SCT047 31/22 A3002 RMK AO2
KMGR 231635Z AUTO 27006G17KT 10SM SCT037 SCT045 31/22 A3002 RMK AO2
KMGR 231615Z AUTO 27006KT 10SM SCT035 SCT045 31/22 A3002 RMK AO2
KMGR 231555Z AUTO 26010G17KT 10SM SCT035 SCT041 31/22 A3002 RMK AO2
KMGR 231535Z AUTO 27013G18KT 10SM SCT032 SCT040 31/22 A3002 RMK AO2
KMGR 231515Z AUTO 27010G14KT 10SM SCT026 SCT032 SCT038 30/23 A3002 RMK AO2
KMGR 231455Z AUTO 28007G14KT 10SM SCT028 SCT035 30/23 A3002 RMK AO2
KMGR 231435Z AUTO 27010G16KT 10SM CLR 30/22 A3001 RMK AO2
KMGR 231415Z AUTO 27008G15KT 10SM SCT025 29/23 A3000 RMK AO2
KMGR 231355Z AUTO 28010KT 10SM SCT023 SCT028 28/23 A3001 RMK AO2
KMGR 231335Z AUTO 26007KT 10SM CLR 28/23 A3000 RMK AO2
KMGR 231315Z AUTO 27007KT 10SM CLR 27/23 A3000 RMK AO2
KMGR 231255Z AUTO 26008KT 10SM CLR 27/23 A3000 RMK AO2
KMGR 231235Z AUTO 24008KT 10SM CLR 26/23 A3000 RMK AO2
KMGR 231215Z AUTO 26007KT 10SM CLR 26/23 A3000 RMK AO2
KMGR 231155Z AUTO 23004KT 7SM CLR 25/23 A2999 RMK AO2
KMGR 231135Z AUTO 25004KT 7SM CLR 24/23 A2998 RMK AO2
KMGR 231115Z AUTO 24003KT 7SM CLR 24/23 A2998 RMK AO2
KMGR 231055Z AUTO 23003KT 7SM CLR 24/23 A2997 RMK AO2
KMGR 231035Z AUTO 24003KT 7SM CLR 24/23 A2997 RMK AO2
KMGR 231015Z AUTO 23005KT 10SM CLR 24/23 A2996 RMK AO2
KMGR 230955Z AUTO 23006KT 10SM CLR 24/23 A2995 RMK AO2
KMGR 230935Z AUTO 23006KT 7SM CLR 24/23 A2995 RMK AO2
KMGR 230915Z AUTO 23005KT 7SM CLR 24/23 A2994 RMK AO2
KMGR 230855Z AUTO 24007KT 10SM CLR 24/23 A2994 RMK AO2
KMGR 230835Z AUTO 24006KT 7SM CLR 24/23 A2994 RMK AO2
KMGR 230815Z AUTO 22005KT 10SM CLR 25/23 A2994 RMK AO2
KMGR 230755Z AUTO 23005KT 10SM CLR 25/23 A2994 RMK AO2
KMGR 230735Z AUTO 23004KT 10SM CLR 25/23 A2993 RMK AO2
KMGR 230715Z AUTO 24004KT 10SM CLR 25/23 A2993 RMK AO2
KMGR 230655Z AUTO 22005KT 10SM CLR 25/23 A2992 RMK AO2
KMGR 230635Z AUTO 21004KT 10SM CLR 25/23 A2992 RMK AO2
KMGR 230615Z AUTO 22004KT 10SM CLR 25/22 A2993 RMK AO2
KMGR 230555Z AUTO 25003KT 10SM CLR 25/22 A2994 RMK AO2
KMGR 230535Z AUTO 22003KT 10SM CLR 25/22 A2994 RMK AO2
KMGR 230515Z AUTO 21005KT 10SM CLR 25/22 A2994 RMK AO2
KMGR 230455Z AUTO 23004KT 10SM CLR 25/22 A2993 RMK AO2
KMGR 230435Z AUTO 22005KT 10SM CLR 26/22 A2994 RMK AO2
KMGR 230415Z AUTO 23005KT 10SM CLR 26/22 A2994 RMK AO2
KMGR 230355Z AUTO 22004KT 10SM CLR 26/22 A2994 RMK AO2
KMGR 230335Z AUTO 22005KT 10SM CLR 26/22 A2994 RMK AO2 LTG DSNT NE
KMGR 230315Z AUTO 22005KT 10SM CLR 26/22 A2994 RMK AO2
KMGR 230255Z AUTO 22006KT 10SM CLR 27/22 A2994 RMK AO2
KMGR 230235Z AUTO 22005KT 10SM CLR 27/22 A2993 RMK AO2
KMGR 230215Z AUTO 22004KT 10SM CLR 27/22 A2992 RMK AO2
KMGR 230155Z AUTO 20003KT 10SM CLR 27/22 A2992 RMK AO2
KMGR 230135Z AUTO 21003KT 10SM CLR 27/23 A2992 RMK AO2 LTG DSNT NE
KMGR 230115Z AUTO 00000KT 10SM CLR 27/23 A2992 RMK AO2
KMGR 230055Z AUTO 00000KT 10SM CLR 27/25 A2990 RMK AO2
KMGR 230035Z AUTO 00000KT 10SM CLR 27/25 A2990 RMK AO2
KMGR 230015Z AUTO 00000KT 10SM CLR 29/24 A2989 RMK AO2
KMGR 222355Z AUTO 20003KT 10SM CLR 30/25 A2989 RMK AO2
KMGR 222335Z AUTO 21003KT 10SM CLR 30/25 A2989 RMK AO2
KMGR 222315Z AUTO 20005KT 10SM CLR 30/25 A2988 RMK AO2
KMGR 222255Z AUTO 00000KT 10SM CLR 28/24 A2988 RMK AO2
KMGR 222235Z AUTO 00000KT 10SM CLR 27/23 A2988 RMK AO2
KMGR 222215Z AUTO 17003KT 10SM -RA SCT013 SCT027 BKN037 26/22 A2987 RMK AO2
KMGR 222155Z AUTO 22018G28KT 10SM SCT029 SCT034 SCT046 31/22 A2990 RMK AO2
KMGR 222135Z AUTO 22012G16KT 10SM SCT032 SCT037 SCT055 32/23 A2989 RMK AO2
KMGR 222115Z AUTO 22006KT 10SM SCT034 SCT042 SCT055 32/24 A2990 RMK AO2
KMGR 222055Z AUTO 20009G15KT 10SM SCT036 SCT042 31/23 A2989 RMK AO2
KMGR 222035Z AUTO 23004KT 10SM SCT034 32/23 A2990 RMK AO2
KMGR 222015Z AUTO 23007KT 10SM SCT034 32/23 A2991 RMK AO2
KMGR 221955Z AUTO 22010KT 10SM SCT034 SCT040 32/23 A2992 RMK AO2
KMGR 221935Z AUTO 23009KT 10SM CLR 32/23 A2993 RMK AO2